Time;durP1;ratioP1;P1;durP2;ratioP2;P2;SDS_P1;SDS_P2;PMS_P1;PMS_P2;Temp;Humidity;BMP_temperature;BMP_pressure;BME280_temperature;BME280_humidity;BME280_pressure;Samples;Min_cycle;Max_cycle;Signal;HPM_P1;HPM_P2
2023/02/19 00:01:34;;;;;;;9.90;8.32;;;;;;;9.55;66.14;99858.19;5096171;28;20063;-46
2023/02/19 00:04:22;;;;;;;13.55;8.00;;;;;;;9.63;65.86;99855.56;5114467;28;20020;-47
2023/02/19 00:06:50;;;;;;;13.20;9.23;;;;;;;9.63;65.10;99852.94;5113159;28;20400;-47
2023/02/19 00:09:18;;;;;;;18.52;8.80;;;;;;;9.65;66.14;99855.41;5114390;28;20062;-47
2023/02/19 00:11:46;;;;;;;13.55;7.53;;;;;;;9.76;65.03;99852.44;5112981;28;20023;-47
2023/02/19 00:14:19;;;;;;;11.55;7.55;;;;;;;9.85;63.71;99848.81;5096181;28;20076;-47
2023/02/19 00:16:46;;;;;;;11.75;8.43;;;;;;;9.89;63.43;99852.75;5114137;28;20063;-47
2023/02/19 00:19:16;;;;;;;12.30;7.93;;;;;;;9.99;63.49;99861.25;5114125;28;20015;-47
2023/02/19 00:21:43;;;;;;;13.35;7.80;;;;;;;10.02;63.13;99854.84;5114192;28;20498;-47
2023/02/19 00:24:12;;;;;;;10.23;6.90;;;;;;;10.03;62.42;99853.06;5112791;28;20035;-47
2023/02/19 00:26:41;;;;;;;12.73;7.28;;;;;;;10.17;63.36;99847.91;5113985;28;20015;-47
2023/02/19 00:29:13;;;;;;;11.52;8.20;;;;;;;10.49;62.57;99851.44;5113966;28;20039;-47
2023/02/19 00:31:43;;;;;;;11.10;7.00;;;;;;;10.69;61.77;99843.16;5114004;28;20026;-47
2023/02/19 00:34:11;;;;;;;20.42;8.85;;;;;;;10.77;61.36;99843.09;5112524;28;20062;-47
2023/02/19 00:36:40;;;;;;;10.95;7.93;;;;;;;10.52;61.19;99848.47;5113846;28;20092;-47
2023/02/19 00:39:07;;;;;;;10.60;6.85;;;;;;;10.37;61.84;99840.50;5095373;28;20019;-47
2023/02/19 00:41:34;;;;;;;12.77;7.50;;;;;;;10.38;61.26;99846.56;5095426;28;20038;-47
2023/02/19 00:44:04;;;;;;;18.15;8.18;;;;;;;10.34;62.12;99842.63;5112328;28;20069;-47
2023/02/19 00:46:37;;;;;;;14.35;7.45;;;;;;;10.34;62.13;99847.88;5112352;28;20020;-47
2023/02/19 00:49:14;;;;;;;9.57;7.05;;;;;;;10.36;62.00;99846.75;5113474;28;20110;-47
2023/02/19 00:51:41;;;;;;;9.98;7.25;;;;;;;10.52;61.05;99843.25;5108602;28;20055;-47
2023/02/19 00:54:09;;;;;;;9.60;6.93;;;;;;;10.51;60.55;99838.16;5108727;28;20028;-47
2023/02/19 00:56:35;;;;;;;10.18;7.32;;;;;;;10.38;60.76;99838.69;5092994;28;20051;-47
2023/02/19 00:59:16;;;;;;;12.02;8.18;;;;;;;10.28;61.36;99827.53;5089916;28;20366;-47
2023/02/19 01:01:56;;;;;;;12.23;7.82;;;;;;;10.20;61.65;99828.38;5087178;28;20027;-47
2023/02/19 01:04:22;;;;;;;12.00;7.57;;;;;;;10.01;61.90;99832.22;5091613;28;20489;-47
2023/02/19 01:06:56;;;;;;;13.23;7.18;;;;;;;9.95;62.20;99830.28;5108443;28;20058;-48
2023/02/19 01:09:38;;;;;;;12.13;8.52;;;;;;;9.90;63.26;99832.56;5092368;28;20030;-47
2023/02/19 01:12:18;;;;;;;17.20;8.75;;;;;;;9.94;64.50;99831.25;5090144;28;20165;-47
2023/02/19 01:14:46;;;;;;;14.35;9.65;;;;;;;10.07;63.68;99831.56;5087385;28;20027;-47
2023/02/19 01:17:17;;;;;;;20.05;10.68;;;;;;;9.97;64.93;99829.13;5092697;28;20024;-46
2023/02/19 01:19:49;;;;;;;15.57;10.13;;;;;;;10.00;64.48;99830.59;5087072;28;20043;-46
2023/02/19 01:22:25;;;;;;;13.45;8.88;;;;;;;9.99;64.99;99829.75;5091309;28;20150;-48
2023/02/19 01:24:51;;;;;;;18.33;10.02;;;;;;;10.12;64.54;99820.53;5108286;28;20058;-47
2023/02/19 01:27:18;;;;;;;16.90;8.48;;;;;;;10.17;64.09;99831.38;5092444;28;20390;-46
2023/02/19 01:29:56;;;;;;;15.18;8.52;;;;;;;10.06;63.82;99816.81;5092507;28;20051;-47
2023/02/19 01:32:25;;;;;;;13.25;8.23;;;;;;;9.90;64.95;99825.53;5092460;28;20429;-47
2023/02/19 01:34:52;;;;;;;12.95;8.82;;;;;;;9.91;65.22;99823.72;5092210;28;20020;-46
2023/02/19 01:37:31;;;;;;;13.52;9.05;;;;;;;9.89;64.79;99820.47;5083037;28;20039;-47
2023/02/19 01:40:08;;;;;;;14.52;8.68;;;;;;;9.75;65.56;99820.16;5107963;28;20031;-47
2023/02/19 01:43:02;;;;;;;12.07;9.77;;;;;;;9.79;65.03;99818.03;5085425;28;20086;-47
2023/02/19 01:45:37;;;;;;;13.57;8.70;;;;;;;9.51;65.74;99812.34;5092217;28;20390;-47
2023/02/19 01:51:32;;;;;;;13.38;10.10;;;;;;;9.46;66.18;99812.03;5090154;28;20078;-47
2023/02/19 01:54:05;;;;;;;12.45;9.07;;;;;;;9.65;65.87;99814.28;5091672;28;20464;-47
2023/02/19 01:56:39;;;;;;;13.57;8.60;;;;;;;9.69;65.99;99820.00;5070505;28;20060;-48
2023/02/19 01:59:32;;;;;;;15.13;9.07;;;;;;;9.85;65.79;99819.97;5084767;28;20052;-46
2023/02/19 02:02:03;;;;;;;16.02;9.88;;;;;;;9.81;65.96;99818.66;5088472;28;20025;-47
2023/02/19 02:04:39;;;;;;;23.88;16.35;;;;;;;9.89;65.96;99805.53;5091989;28;20024;-46
2023/02/19 02:13:11;;;;;;;12.27;9.57;;;;;;;9.52;66.80;99803.50;5092150;28;20119;-47
2023/02/19 02:19:29;;;;;;;16.67;10.00;;;;;;;9.55;67.79;99792.66;5091571;28;20518;-47
2023/02/19 02:22:26;;;;;;;17.58;10.50;;;;;;;9.74;67.11;99797.56;5073048;28;20024;-47
2023/02/19 02:25:49;;;;;;;16.10;9.48;;;;;;;9.77;67.78;99799.03;5075315;28;20028;-46
2023/02/19 02:29:08;;;;;;;14.52;9.32;;;;;;;10.11;67.05;99790.88;5095921;28;20038;-48
2023/02/19 02:32:52;;;;;;;15.70;8.75;;;;;;;10.16;65.61;99791.22;5095869;28;20429;-48
2023/02/19 02:35:53;;;;;;;16.80;9.93;;;;;;;10.01;66.55;99782.41;4991718;28;20034;-47
2023/02/19 02:38:53;;;;;;;16.98;8.95;;;;;;;9.97;66.83;99783.72;4977527;28;20026;-46
2023/02/19 02:48:18;;;;;;;10.30;7.75;;;;;;;10.34;64.71;99769.16;4993639;28;20053;-46
2023/02/19 02:51:09;;;;;;;13.88;9.15;;;;;;;10.38;64.51;99773.06;4978015;28;20057;-46
2023/02/19 02:57:13;;;;;;;13.10;8.85;;;;;;;9.96;65.34;99768.97;5013175;28;20036;-48
2023/02/19 03:00:14;;;;;;;14.48;8.63;;;;;;;10.01;65.90;99774.53;5010290;28;20089;-47
2023/02/19 03:02:57;;;;;;;18.00;9.68;;;;;;;10.16;66.05;99762.34;5013104;28;20115;-47
2023/02/19 03:08:54;;;;;;;12.65;9.82;;;;;;;10.12;65.75;99758.44;5040588;28;20087;-47
2023/02/19 03:21:06;;;;;;;13.30;8.60;;;;;;;9.96;66.67;99751.44;5012898;28;20533;-47
2023/02/19 03:26:58;;;;;;;15.43;8.73;;;;;;;10.30;65.67;99749.50;5012955;28;20045;-46
2023/02/19 03:29:39;;;;;;;12.77;10.18;;;;;;;10.24;65.33;99751.00;5012644;28;20044;-48
2023/02/19 03:32:37;;;;;;;12.13;9.27;;;;;;;10.37;65.39;99751.28;4998451;28;20073;-47
2023/02/19 03:35:26;;;;;;;14.73;8.98;;;;;;;10.67;64.60;99753.25;5008423;28;20042;-47
2023/02/19 03:38:50;;;;;;;13.90;8.70;;;;;;;10.84;64.13;99756.56;4995919;28;20030;-47
2023/02/19 03:42:06;;;;;;;11.48;8.90;;;;;;;10.91;63.17;99750.44;5012333;28;20033;-48
2023/02/19 03:45:18;;;;;;;11.85;8.18;;;;;;;10.83;62.70;99753.13;5012330;28;20427;-47
2023/02/19 03:48:25;;;;;;;14.38;9.00;;;;;;;10.76;63.25;99754.81;4995747;28;20088;-47
2023/02/19 03:51:43;;;;;;;12.25;8.98;;;;;;;10.79;62.74;99741.34;5039502;28;20115;-47
2023/02/19 03:54:34;;;;;;;13.38;8.52;;;;;;;10.70;62.53;99751.06;5114592;28;20397;-47
2023/02/19 03:57:57;;;;;;;14.15;8.80;;;;;;;10.55;63.15;99751.00;5114572;28;20031;-47
2023/02/19 04:01:28;;;;;;;17.08;10.90;;;;;;;10.69;63.85;99746.81;5075813;28;20095;-48
2023/02/19 04:04:43;;;;;;;13.15;8.43;;;;;;;10.83;62.97;99755.75;5096258;28;20159;-47
2023/02/19 04:07:22;;;;;;;11.45;8.32;;;;;;;10.79;62.93;99752.66;5096111;28;20114;-48
2023/02/19 04:10:09;;;;;;;12.93;8.65;;;;;;;10.87;62.98;99756.22;5096092;28;20056;-47
2023/02/19 04:13:01;;;;;;;11.40;8.18;;;;;;;11.00;62.33;99748.56;5114284;28;20118;-46
2023/02/19 04:15:54;;;;;;;15.60;8.68;;;;;;;10.92;62.32;99743.38;5112929;28;20034;-46
2023/02/19 04:19:10;;;;;;;15.93;8.57;;;;;;;11.00;62.01;99756.44;5112714;28;20032;-46
2023/02/19 04:21:34;;;;;;;12.27;9.48;;;;;;;10.97;62.00;99756.81;5110014;28;20168;-47
2023/02/19 04:24:44;;;;;;;12.75;8.90;;;;;;;10.96;61.68;99763.03;5095848;28;20024;-47
2023/02/19 04:27:15;;;;;;;14.00;8.20;;;;;;;10.98;61.47;99764.47;5114070;28;20542;-47
2023/02/19 04:29:59;;;;;;;11.82;8.20;;;;;;;10.99;61.76;99775.81;5113944;28;20035;-47
2023/02/19 04:32:43;;;;;;;14.85;9.50;;;;;;;11.06;61.54;99773.31;5113904;28;20020;-47
2023/02/19 04:35:32;;;;;;;21.85;9.38;;;;;;;11.16;61.63;99781.75;5095499;28;20027;-47
2023/02/19 04:38:20;;;;;;;15.48;9.18;;;;;;;11.11;60.83;99781.50;5095480;28;20019;-47
2023/02/19 04:40:47;;;;;;;16.48;9.00;;;;;;;11.03;61.58;99789.41;5095462;28;20458;-47
2023/02/19 04:43:33;;;;;;;15.10;8.60;;;;;;;11.15;62.08;99793.28;5113449;28;20080;-47
2023/02/19 04:46:00;;;;;;;18.08;8.45;;;;;;;11.27;61.06;99783.97;5113370;28;20023;-47
2023/02/19 04:48:28;;;;;;;18.05;9.60;;;;;;;11.26;60.90;99792.84;5113570;28;20031;-47
2023/02/19 04:50:55;;;;;;;13.93;9.20;;;;;;;11.25;61.01;99787.75;5113240;28;20070;-47
2023/02/19 04:53:23;;;;;;;14.88;9.23;;;;;;;11.28;60.99;99790.03;5113632;28;20507;-47
2023/02/19 04:55:52;;;;;;;12.75;8.95;;;;;;;11.30;61.12;99793.31;5095152;28;20400;-47
2023/02/19 04:58:19;;;;;;;10.73;8.45;;;;;;;11.34;60.86;99789.31;5112370;28;20103;-47
2023/02/19 05:01:07;;;;;;;17.23;9.18;;;;;;;11.49;61.25;99789.34;5113372;28;20024;-47
2023/02/19 05:03:35;;;;;;;15.70;9.27;;;;;;;11.59;60.46;99792.56;5113415;28;20036;-47
2023/02/19 05:06:08;;;;;;;13.35;8.05;;;;;;;11.66;60.19;99805.78;5094938;28;20054;-47
2023/02/19 05:08:36;;;;;;;12.57;7.85;;;;;;;11.70;59.83;99805.25;5113263;28;20027;-47
2023/02/19 05:11:05;;;;;;;13.18;9.35;;;;;;;11.73;59.56;99804.06;5111812;28;20024;-47
2023/02/19 05:13:33;;;;;;;10.70;8.02;;;;;;;11.74;59.67;99798.63;5077959;28;20512;-47
2023/02/19 05:16:09;;;;;;;14.73;9.60;;;;;;;11.70;59.58;99802.63;5111772;28;20019;-47
2023/02/19 05:18:53;;;;;;;16.50;8.45;;;;;;;11.62;59.82;99805.34;5111702;28;20028;-48
2023/02/19 05:21:35;;;;;;;12.68;9.68;;;;;;;11.58;59.88;99804.88;5111642;28;20027;-48
2023/02/19 05:24:09;;;;;;;13.55;9.80;;;;;;;11.52;59.89;99812.66;5094692;28;20156;-48
2023/02/19 05:26:43;;;;;;;13.67;9.37;;;;;;;11.38;60.04;99807.19;5112912;28;20020;-47
2023/02/19 05:29:10;;;;;;;13.52;8.82;;;;;;;11.32;59.75;99807.91;5112897;28;20497;-47
2023/02/19 05:31:37;;;;;;;16.02;9.13;;;;;;;11.29;60.52;99802.16;5112788;28;20077;-47
2023/02/19 05:34:04;;;;;;;13.57;9.27;;;;;;;11.37;60.24;99810.00;5112770;28;20460;-46
2023/02/19 05:36:32;;;;;;;14.15;8.95;;;;;;;11.51;60.52;99808.38;5111404;28;20031;-47
2023/02/19 05:38:59;;;;;;;12.35;8.40;;;;;;;11.62;60.18;99800.06;5112610;28;20034;-47
2023/02/19 05:41:28;;;;;;;11.85;8.88;;;;;;;11.58;59.69;99801.44;5112567;28;20023;-47
2023/02/19 05:43:56;;;;;;;13.65;11.23;;;;;;;11.48;59.85;99800.88;5112512;28;20039;-47
2023/02/19 05:46:26;;;;;;;13.48;8.55;;;;;;;11.44;59.27;99789.88;5112571;28;20027;-47
2023/02/19 05:48:53;;;;;;;14.98;8.65;;;;;;;11.34;59.48;99784.88;5111181;28;20485;-47
2023/02/19 05:51:23;;;;;;;11.90;8.88;;;;;;;11.21;59.66;99789.94;5112183;28;20386;-47
2023/02/19 05:54:09;;;;;;;12.10;8.85;;;;;;;11.04;59.99;99791.06;5112381;28;20020;-47
2023/02/19 05:56:36;;;;;;;;;;;;;;;10.92;60.31;99788.00;5112944;28;20494;-47
2023/02/19 05:59:37;;;;;;;13.40;8.32;;;;;;;10.92;61.54;99778.31;5094066;28;19949;-47
2023/02/19 06:02:16;;;;;;;15.25;7.90;;;;;;;11.13;61.41;99772.44;5112434;28;20024;-48
2023/02/19 06:04:58;;;;;;;10.38;7.60;;;;;;;11.25;60.69;99769.34;5094064;28;20042;-47
2023/02/19 06:07:40;;;;;;;12.35;7.90;;;;;;;11.34;61.33;99765.66;5112271;28;20020;-48
2023/02/19 06:10:31;;;;;;;11.73;7.80;;;;;;;11.41;60.34;99761.34;5112111;28;20031;-47
2023/02/19 06:13:04;;;;;;;11.32;7.28;;;;;;;11.27;60.11;99747.19;5112202;28;20100;-47
2023/02/19 06:15:38;;;;;;;15.05;9.68;;;;;;;11.04;62.06;99751.66;5093858;28;20031;-46
2023/02/19 06:18:13;;;;;;;13.13;10.38;;;;;;;10.89;62.88;99749.78;5093950;28;20107;-48
2023/02/19 06:20:52;;;;;;;15.00;10.10;;;;;;;10.62;64.35;99745.06;5112170;28;20023;-47
2023/02/19 06:23:29;;;;;;;13.40;9.18;;;;;;;10.67;65.82;99748.00;5093777;28;20027;-47
2023/02/19 06:26:37;;;;;;;19.75;9.05;;;;;;;10.97;65.64;99735.78;5093743;28;20671;-48
2023/02/19 06:29:16;;;;;;;12.43;7.65;;;;;;;11.51;63.02;99721.63;5112170;28;20020;-47
2023/02/19 06:31:46;;;;;;;12.80;9.02;;;;;;;11.70;61.60;99707.94;5112058;28;20028;-48
2023/02/19 06:34:21;;;;;;;12.82;9.27;;;;;;;11.53;62.86;99695.97;5110767;28;20039;-47
2023/02/19 06:36:52;;;;;;;15.38;8.68;;;;;;;11.56;63.05;99691.19;5093653;28;20499;-46
2023/02/19 06:39:29;;;;;;;11.35;9.13;;;;;;;11.56;62.10;99724.53;5111895;28;20023;-48
2023/02/19 06:42:02;;;;;;;10.50;8.05;;;;;;;11.38;63.59;99733.59;5111909;28;20043;-47
2023/02/19 06:44:41;;;;;;;12.45;8.40;;;;;;;11.57;63.45;99732.25;5112043;28;20024;-48
2023/02/19 06:47:11;;;;;;;10.95;8.63;;;;;;;11.47;62.81;99741.38;5110630;28;20030;-47
2023/02/19 06:49:47;;;;;;;11.30;8.15;;;;;;;11.47;63.42;99747.50;5110607;28;20035;-47
2023/02/19 06:52:21;;;;;;;13.15;10.00;;;;;;;11.65;63.27;99756.81;5111363;28;20044;-47
2023/02/19 06:54:49;;;;;;;13.52;9.23;;;;;;;11.91;63.13;99756.41;5111650;28;20046;-47
2023/02/19 06:57:23;;;;;;;13.20;9.30;;;;;;;12.14;61.09;99756.31;5093536;28;20026;-46
2023/02/19 06:59:53;;;;;;;10.52;8.90;;;;;;;12.27;60.76;99760.88;5111748;28;20024;-47
2023/02/19 07:02:34;;;;;;;11.32;8.32;;;;;;;12.99;59.56;99766.09;5110381;28;20020;-47
2023/02/19 07:04:59;;;;;;;12.50;8.77;;;;;;;13.87;56.59;99772.84;5110455;28;20040;-47
2023/02/19 07:07:31;;;;;;;13.02;8.60;;;;;;;14.59;55.05;99782.09;5112615;28;20396;-47
2023/02/19 07:10:00;;;;;;;17.15;8.38;;;;;;;15.43;53.14;99778.09;5097218;28;20031;-47
2023/02/19 07:12:27;;;;;;;12.45;7.93;;;;;;;15.66;50.93;99785.59;5115558;28;20055;-47
2023/02/19 07:14:54;;;;;;;9.82;8.02;;;;;;;15.04;51.71;99797.44;5115531;28;20027;-47
2023/02/19 07:17:21;;;;;;;9.90;7.82;;;;;;;14.47;52.44;99813.53;5115457;28;20516;-47
2023/02/19 07:19:48;;;;;;;12.35;8.73;;;;;;;13.94;53.53;99813.25;5115328;28;20028;-47
2023/02/19 07:22:14;;;;;;;11.52;9.02;;;;;;;13.57;54.20;99818.72;5115302;28;20024;-47
2023/02/19 07:24:50;;;;;;;11.80;9.00;;;;;;;13.29;54.88;99821.34;5096904;28;20058;-48
2023/02/19 07:27:21;;;;;;;12.13;8.65;;;;;;;13.12;54.99;99830.47;5115158;28;20051;-47
2023/02/19 07:29:47;;;;;;;11.32;9.25;;;;;;;12.84;55.61;99833.03;5115224;28;20038;-47
2023/02/19 07:32:16;;;;;;;13.25;8.77;;;;;;;12.71;56.27;99842.41;5113802;28;20020;-48
2023/02/19 07:34:52;;;;;;;12.48;9.77;;;;;;;12.64;56.18;99848.63;5113746;28;20034;-47
2023/02/19 07:37:18;;;;;;;11.82;10.30;;;;;;;12.66;56.66;99852.72;5096803;28;20024;-47
2023/02/19 07:39:45;;;;;;;17.65;10.00;;;;;;;12.66;56.53;99854.53;5096623;28;20023;-47
2023/02/19 07:42:12;;;;;;;14.13;11.48;;;;;;;12.53;56.75;99848.06;5114955;28;20020;-47
2023/02/19 07:44:39;;;;;;;14.10;10.57;;;;;;;12.49;57.09;99859.97;5114905;28;20073;-47
2023/02/19 07:47:05;;;;;;;17.20;10.10;;;;;;;12.52;57.54;99862.25;5114905;28;20016;-47
2023/02/19 07:49:33;;;;;;;12.75;10.27;;;;;;;12.55;57.40;99859.25;5114796;28;20030;-47
2023/02/19 07:52:00;;;;;;;13.82;12.43;;;;;;;12.56;57.23;99858.25;5114534;28;20047;-47
2023/02/19 07:54:28;;;;;;;14.10;11.65;;;;;;;12.56;57.51;99860.88;5114620;28;20516;-47
2023/02/19 07:56:55;;;;;;;16.48;10.93;;;;;;;12.63;57.66;99868.84;5114680;28;20023;-47
2023/02/19 07:59:23;;;;;;;14.50;11.20;;;;;;;12.69;57.12;99868.13;5114600;28;20057;-47
2023/02/19 08:04:35;;;;;;;13.50;10.77;;;;;;;12.49;57.75;99859.16;5115035;28;20031;-47
2023/02/19 08:07:04;;;;;;;15.98;10.43;;;;;;;12.50;57.80;99872.16;5114537;28;20027;-47
2023/02/19 08:09:31;;;;;;;12.45;11.02;;;;;;;12.52;58.24;99864.09;5114739;28;20019;-47
2023/02/19 08:15:07;;;;;;;20.33;10.23;;;;;;;12.66;57.78;99870.34;5114696;28;20076;-48
2023/02/19 08:17:39;;;;;;;15.55;10.77;;;;;;;12.78;57.48;99877.56;5114527;28;20125;-47
2023/02/19 08:20:24;;;;;;;15.82;11.13;;;;;;;12.91;57.57;99871.63;5114226;28;20084;-47
2023/02/19 08:23:09;;;;;;;14.33;11.07;;;;;;;13.19;57.93;99879.59;5114339;28;20436;-47
2023/02/19 08:25:52;;;;;;;14.38;11.15;;;;;;;13.42;56.99;99888.38;5095804;28;20028;-48
2023/02/19 08:28:36;;;;;;;14.77;11.32;;;;;;;13.43;56.34;99885.53;5095703;28;20374;-48
2023/02/19 08:31:21;;;;;;;17.90;11.82;;;;;;;13.38;56.42;99887.91;5095648;28;20099;-47
2023/02/19 08:33:55;;;;;;;12.10;10.82;;;;;;;13.39;56.71;99900.94;5095671;28;20023;-47
2023/02/19 08:36:27;;;;;;;14.75;11.23;;;;;;;13.42;56.27;99904.19;5113913;28;20031;-47
2023/02/19 08:38:54;;;;;;;14.23;12.02;;;;;;;13.38;56.54;99901.94;5113738;28;20076;-47
2023/02/19 08:41:21;;;;;;;11.70;10.50;;;;;;;13.54;56.61;99906.16;5113751;28;20026;-47
2023/02/19 08:43:48;;;;;;;12.63;10.35;;;;;;;13.71;56.18;99919.88;5114005;28;20034;-47
2023/02/19 08:46:15;;;;;;;16.20;12.90;;;;;;;13.85;55.96;99915.53;5113630;28;20111;-47
2023/02/19 08:48:43;;;;;;;16.63;10.88;;;;;;;13.83;55.47;99914.09;5095366;28;20036;-47
2023/02/19 08:51:11;;;;;;;15.57;12.70;;;;;;;13.68;55.90;99920.28;5113396;28;20019;-47
2023/02/19 08:53:40;;;;;;;15.95;12.40;;;;;;;13.66;55.69;99930.19;5113602;28;20114;-47
2023/02/19 08:56:22;;;;;;;17.35;12.93;;;;;;;13.65;55.76;99920.63;5113502;28;20019;-47
2023/02/19 08:58:49;;;;;;;14.10;11.65;;;;;;;13.66;55.48;99918.81;5113412;28;20015;-47
2023/02/19 09:01:22;;;;;;;18.33;12.85;;;;;;;13.65;55.40;99919.84;5113387;28;20102;-47
2023/02/19 09:03:49;;;;;;;16.55;13.68;;;;;;;13.63;55.75;99909.47;5113319;28;20015;-47
2023/02/19 09:06:30;;;;;;;14.68;12.40;;;;;;;13.84;55.31;99913.06;5094885;28;20583;-47
2023/02/19 09:09:15;;;;;;;15.23;11.88;;;;;;;13.92;55.15;99918.22;5113189;28;20053;-47
2023/02/19 09:11:47;;;;;;;16.02;11.77;;;;;;;13.97;55.08;99918.47;5094832;28;20572;-47
2023/02/19 09:14:13;;;;;;;18.85;12.23;;;;;;;14.03;55.16;99916.88;5094843;28;20060;-46
2023/02/19 09:16:57;;;;;;;14.48;12.40;;;;;;;14.11;55.09;99920.19;5113026;28;20031;-47
2023/02/19 09:19:34;;;;;;;;;;;;;;;;;;;;;
2023/02/19 09:22:11;;;;;;;13.75;11.40;;;;;;;14.74;54.35;99917.50;5112451;28;20421;-47
2023/02/19 09:24:55;;;;;;;15.38;11.77;;;;;;;15.23;53.53;99920.09;5112978;28;20038;-47
2023/02/19 09:27:34;;;;;;;13.80;12.23;;;;;;;15.76;52.13;99912.28;5112986;28;20028;-48
2023/02/19 09:30:00;;;;;;;12.13;10.93;;;;;;;16.01;51.52;99919.56;5112492;28;20527;-47
2023/02/19 09:32:36;;;;;;;16.40;10.43;;;;;;;16.26;50.97;99912.63;5094530;28;20565;-48
2023/02/19 09:35:04;;;;;;;14.77;11.23;;;;;;;16.60;50.18;99921.31;5112789;28;20051;-47
2023/02/19 09:37:30;;;;;;;14.00;11.32;;;;;;;17.06;50.04;99917.63;5112830;28;20027;-47
2023/02/19 09:39:57;;;;;;;13.75;10.13;;;;;;;17.72;48.47;99904.97;5094321;28;20024;-47
2023/02/19 09:42:32;;;;;;;11.00;9.90;;;;;;;18.20;47.24;99899.03;5112697;28;20039;-48
2023/02/19 09:45:00;;;;;;;11.77;9.13;;;;;;;18.85;45.74;99900.34;5111396;28;20505;-45
2023/02/19 09:47:30;;;;;;;11.10;9.32;;;;;;;19.66;43.81;99890.16;5112632;28;20028;-45
2023/02/19 09:50:06;;;;;;;11.27;9.25;;;;;;;20.37;43.19;99893.63;5112619;28;20073;-45
2023/02/19 09:52:55;;;;;;;8.95;7.40;;;;;;;21.41;41.42;99886.50;5090588;28;20044;-46
2023/02/19 09:55:37;;;;;;;7.50;6.75;;;;;;;22.11;39.20;99877.16;5092157;28;20504;-45
2023/02/19 09:58:35;;;;;;;8.25;7.25;;;;;;;22.44;38.62;99878.16;5089299;28;20032;-45
2023/02/19 10:01:06;;;;;;;9.05;7.93;;;;;;;22.62;38.19;99885.06;5083606;28;20046;-45
2023/02/19 10:03:39;;;;;;;12.23;8.63;;;;;;;22.38;38.05;99885.31;5091986;28;20043;-45
2023/02/19 10:06:14;;;;;;;9.25;8.00;;;;;;;22.16;37.93;99885.25;5089433;28;20047;-45
2023/02/19 10:08:50;;;;;;;9.38;6.90;;;;;;;21.76;37.59;99886.31;5091993;28;20394;-45
2023/02/19 10:11:18;;;;;;;8.43;6.85;;;;;;;21.25;39.11;99883.59;5092067;28;20032;-45
2023/02/19 10:13:50;;;;;;;8.73;7.07;;;;;;;21.39;39.56;99881.44;5091839;28;20031;-45
2023/02/19 10:16:27;;;;;;;11.25;7.63;;;;;;;21.69;39.01;99883.81;5091854;28;20035;-45
2023/02/19 10:18:55;;;;;;;8.30;6.70;;;;;;;21.90;38.36;99884.09;5087526;28;20032;-45
2023/02/19 10:21:24;;;;;;;10.80;7.82;;;;;;;21.89;37.58;99883.28;5091716;28;20032;-45
2023/02/19 10:24:02;;;;;;;13.68;7.63;;;;;;;21.46;38.31;99878.63;5092047;28;20020;-46
2023/02/19 10:26:35;;;;;;;9.40;6.22;;;;;;;21.00;39.04;99875.13;5091971;28;20035;-45
2023/02/19 10:29:05;;;;;;;7.90;5.97;;;;;;;21.21;38.50;99874.44;5091682;28;20099;-45
2023/02/19 10:32:13;;;;;;;8.13;6.90;;;;;;;21.32;38.17;99881.56;5091583;28;20029;-45
2023/02/19 10:34:40;;;;;;;8.57;6.05;;;;;;;21.45;38.54;99875.16;5091480;28;20025;-45
2023/02/19 10:37:17;;;;;;;13.27;7.13;;;;;;;21.65;38.51;99880.00;5089263;28;20039;-45
2023/02/19 10:40:07;;;;;;;40.72;34.75;;;;;;;21.77;37.47;99879.09;5091521;28;20081;-46
2023/02/19 10:43:03;;;;;;;17.02;10.30;;;;;;;21.89;37.26;99872.59;5087205;28;20024;-46
2023/02/19 10:45:51;;;;;;;11.30;6.78;;;;;;;21.85;37.30;99874.16;5088155;28;20031;-45
2023/02/19 10:48:42;;;;;;;9.70;5.35;;;;;;;21.83;37.16;99880.78;5095617;28;20047;-45
2023/02/19 10:51:19;;;;;;;8.65;5.68;;;;;;;21.68;37.17;99870.69;5092945;28;20576;-45
2023/02/19 10:53:51;;;;;;;8.50;5.65;;;;;;;21.29;37.72;99874.06;5090180;28;20452;-45
2023/02/19 10:56:32;;;;;;;7.57;4.90;;;;;;;20.73;38.45;99889.06;5094204;28;20098;-45
2023/02/19 10:59:27;;;;;;;10.50;4.82;;;;;;;20.19;39.15;99891.13;5095305;28;20444;-44
2023/02/19 11:02:26;;;;;;;6.23;4.73;;;;;;;19.72;39.89;99900.75;5097425;28;20374;-45
2023/02/19 11:05:15;;;;;;;6.72;4.70;;;;;;;19.22;41.49;99898.41;5096915;28;20254;-45
2023/02/19 11:07:55;;;;;;;13.57;9.18;;;;;;;19.15;42.16;99906.47;5115717;28;20023;-44
2023/02/19 11:10:38;;;;;;;10.20;6.00;;;;;;;19.14;42.27;99906.72;5115643;28;20054;-45
2023/02/19 11:13:31;;;;;;;7.20;6.25;;;;;;;19.14;42.32;99912.84;5115661;28;20515;-45
2023/02/19 11:16:08;;;;;;;12.77;7.40;;;;;;;19.09;42.44;99907.38;5115322;28;20028;-45
2023/02/19 11:18:35;;;;;;;11.10;5.72;;;;;;;19.10;42.91;99911.69;5097156;28;20512;-45
2023/02/19 11:21:36;;;;;;;6.80;5.22;;;;;;;19.09;42.53;99903.91;5115328;28;20027;-45
2023/02/19 11:24:39;;;;;;;8.95;4.65;;;;;;;19.06;42.35;99905.19;5115302;28;20452;-44
2023/02/19 11:27:27;;;;;;;9.68;6.18;;;;;;;19.00;43.27;99899.97;5115522;28;20027;-45
2023/02/19 11:30:41;;;;;;;12.95;5.57;;;;;;;19.04;42.99;99901.13;5096278;28;20023;-46
2023/02/19 11:33:26;;;;;;;14.38;8.60;;;;;;;19.14;43.26;99898.75;5096799;28;20016;-45
2023/02/19 11:36:30;;;;;;;5.93;4.90;;;;;;;19.15;42.95;99895.03;5096775;28;20119;-45
2023/02/19 11:39:14;;;;;;;10.32;4.57;;;;;;;18.94;42.87;99899.00;5114876;28;20541;-45
2023/02/19 11:42:19;;;;;;;5.55;3.33;;;;;;;18.51;43.54;99898.09;5115169;28;20032;-44
2023/02/19 11:45:22;;;;;;;4.60;3.20;;;;;;;18.36;43.86;99893.13;5113523;28;20447;-45
2023/02/19 11:48:27;;;;;;;6.20;3.63;;;;;;;18.29;44.44;99888.91;5096550;28;20027;-44
2023/02/19 11:51:37;;;;;;;3.63;3.17;;;;;;;18.20;44.31;99891.06;5114876;28;20020;-44
2023/02/19 11:54:53;;;;;;;4.40;3.80;;;;;;;17.90;44.81;99888.28;5074679;28;20051;-45
2023/02/19 11:58:16;;;;;;;7.13;2.37;;;;;;;17.91;44.79;99881.97;5073830;28;20050;-45
2023/02/19 12:01:17;;;;;;;4.93;2.90;;;;;;;18.01;44.83;99876.97;5031843;28;20060;-44
2023/02/19 12:04:05;;;;;;;3.22;2.13;;;;;;;18.02;44.19;99867.94;5017642;28;20069;-44
2023/02/19 12:07:33;;;;;;;3.33;2.50;;;;;;;18.05;44.86;99858.72;5031586;28;20530;-45
2023/02/19 12:10:58;;;;;;;3.72;1.75;;;;;;;18.06;44.36;99860.34;5031733;28;20069;-44
2023/02/19 12:14:09;;;;;;;4.32;1.92;;;;;;;18.26;44.12;99854.81;5031714;28;20041;-44
2023/02/19 12:17:12;;;;;;;8.73;2.35;;;;;;;18.45;43.72;99845.81;5031401;28;20512;-45
2023/02/19 12:20:15;;;;;;;6.38;2.20;;;;;;;18.61;43.37;99838.25;5031540;28;20029;-45
2023/02/19 12:23:27;;;;;;;3.97;1.70;;;;;;;18.69;43.15;99848.56;5014864;28;20088;-44
2023/02/19 12:26:27;;;;;;;3.28;1.60;;;;;;;18.74;43.72;99836.22;5014825;28;20025;-45
2023/02/19 12:29:27;;;;;;;6.15;1.70;;;;;;;18.95;43.14;99844.75;5014801;28;20041;-45
2023/02/19 12:32:28;;;;;;;3.38;2.03;;;;;;;19.04;42.86;99838.09;5012093;28;20043;-45
2023/02/19 12:35:36;;;;;;;4.32;1.70;;;;;;;18.87;42.83;99832.59;5035908;28;20088;-44
2023/02/19 12:38:39;;;;;;;3.90;1.40;;;;;;;18.64;43.24;99835.16;5075348;28;20043;-45
2023/02/19 12:41:34;;;;;;;4.47;1.90;;;;;;;18.40;43.99;99832.38;5075281;28;20060;-45
2023/02/19 12:44:34;;;;;;;3.90;2.00;;;;;;;18.30;44.51;99827.56;5093336;28;20107;-45
2023/02/19 12:47:37;;;;;;;5.30;1.90;;;;;;;18.15;44.93;99827.97;5093492;28;20409;-44
2023/02/19 12:50:56;;;;;;;5.82;1.67;;;;;;;18.07;45.14;99830.06;5093058;28;20493;-45
2023/02/19 12:54:02;;;;;;;3.50;1.98;;;;;;;18.01;45.60;99833.63;5110638;28;20049;-44
2023/02/19 12:57:03;;;;;;;9.40;2.15;;;;;;;17.95;46.04;99835.34;5095278;28;20031;-45
2023/02/19 12:59:39;;;;;;;3.33;1.88;;;;;;;17.89;46.26;99825.59;5082062;28;20062;-44
2023/02/19 13:02:30;;;;;;;4.18;2.30;;;;;;;17.84;46.57;99828.09;5113459;28;20024;-44
2023/02/19 13:05:03;;;;;;;4.65;1.70;;;;;;;17.87;46.77;99823.16;5111419;28;20438;-44
2023/02/19 13:08:05;;;;;;;7.82;2.33;;;;;;;18.00;46.52;99821.38;5113561;28;20450;-44
2023/02/19 13:10:55;;;;;;;5.65;2.22;;;;;;;17.93;46.33;99821.47;5112015;28;20057;-45
2023/02/19 13:13:45;;;;;;;6.30;2.83;;;;;;;17.75;47.23;99823.03;5113294;28;20520;-44
2023/02/19 13:16:18;;;;;;;7.55;2.50;;;;;;;17.82;47.36;99817.66;5113219;28;20027;-44